createdAt,value
2018-12-01T00:03:06.544Z,97193.74
2018-12-01T00:08:01.503Z,97185.56
2018-12-01T00:12:56.418Z,97185.47
2018-12-01T00:17:51.354Z,97188.05
2018-12-01T00:22:46.225Z,97185.73
2018-12-01T00:27:42.166Z,97187.41
2018-12-01T00:33:49.919Z,97182.84
2018-12-01T00:39:24.968Z,97179.97
2018-12-01T00:44:20.139Z,97190.65
2018-12-01T00:55:19.263Z,97196.69
2018-12-01T01:00:28.433Z,97197.99
2018-12-01T01:05:24.973Z,97201.92
2018-12-01T01:10:27.806Z,97203.33
2018-12-01T01:15:23.733Z,97205.71
2018-12-01T01:20:21.748Z,97219.41
2018-12-01T01:25:16.944Z,97216.34
2018-12-01T01:30:19.120Z,97226.11
2018-12-01T01:35:14.781Z,97224.42
2018-12-01T01:40:19.408Z,97233.16
2018-12-01T01:45:17.522Z,97227.41
2018-12-01T01:50:16.440Z,97231.12
2018-12-01T01:55:13.779Z,97226.52
2018-12-01T02:00:23.529Z,97231.86
2018-12-01T02:05:21.768Z,97230.28
2018-12-01T02:10:18.304Z,97219.36
2018-12-01T02:15:16.366Z,97222.44
2018-12-01T02:20:14.359Z,97214.15
2018-12-01T02:25:20.043Z,97222.20
2018-12-01T02:30:21.361Z,97217.00
2018-12-01T02:35:31.852Z,97206.13
2018-12-01T02:40:28.450Z,97210.59
2018-12-01T02:45:40.187Z,97212.67
2018-12-01T02:50:35.165Z,97210.56
2018-12-01T02:55:30.215Z,97211.35
2018-12-01T03:00:25.953Z,97212.05
2018-12-01T03:05:23.246Z,97209.30
2018-12-01T03:10:18.642Z,97225.57
2018-12-01T03:15:19.365Z,97232.54
2018-12-01T03:20:16.443Z,97233.45
2018-12-01T03:25:17.212Z,97236.00
2018-12-01T03:30:12.442Z,97238.98
2018-12-01T03:35:13.615Z,97252.00
2018-12-01T03:40:08.570Z,97251.82
2018-12-01T03:45:03.365Z,97250.52
2018-12-01T03:49:58.164Z,97255.26
2018-12-01T03:54:53.036Z,97263.53
2018-12-01T03:59:47.794Z,97257.02
2018-12-01T04:04:42.562Z,97256.08
2018-12-01T04:09:37.475Z,97257.11
2018-12-01T04:14:32.304Z,97257.20
2018-12-01T04:19:27.098Z,97258.64
2018-12-01T04:24:21.905Z,97253.06
2018-12-01T04:29:16.701Z,97254.67
2018-12-01T04:34:11.518Z,97246.35
2018-12-01T04:39:09.136Z,97244.06
2018-12-01T04:44:04.019Z,97238.56
2018-12-01T04:48:58.808Z,97239.86
2018-12-01T04:53:53.597Z,97235.65
2018-12-01T04:58:50.188Z,97236.95
2018-12-01T05:03:45.052Z,97233.52
2018-12-01T05:08:40.855Z,97234.73
2018-12-01T05:13:35.712Z,97238.69
2018-12-01T05:18:37.036Z,97243.07
2018-12-01T05:23:31.902Z,97246.05
2018-12-01T05:28:26.736Z,97245.73
2018-12-01T05:33:21.589Z,97243.38
2018-12-01T05:38:16.458Z,97243.20
2018-12-01T05:43:11.294Z,97252.16
2018-12-01T05:48:06.631Z,97253.84
2018-12-01T05:53:01.505Z,97244.65
2018-12-01T05:57:56.375Z,97253.29
2018-12-01T06:02:51.288Z,97252.08
2018-12-01T06:07:46.426Z,97249.63
2018-12-01T06:12:41.203Z,97259.56
2018-12-01T06:17:36.139Z,97264.16
2018-12-01T06:22:30.994Z,97263.15
2018-12-01T06:27:25.797Z,97268.06
2018-12-01T06:32:20.613Z,97265.09
2018-12-01T06:37:15.613Z,97271.87
2018-12-01T06:42:10.427Z,97278.01
2018-12-01T06:47:05.251Z,97288.33
2018-12-01T06:52:00.074Z,97288.41
2018-12-01T06:56:54.839Z,97294.83
2018-12-01T07:01:49.626Z,97298.73
2018-12-01T07:06:44.581Z,97297.23
2018-12-01T07:11:39.574Z,97304.72
2018-12-01T07:16:34.493Z,97307.98
2018-12-01T07:21:29.257Z,97314.64
2018-12-01T07:26:24.011Z,97320.48
2018-12-01T07:31:18.961Z,97326.25
2018-12-01T07:36:13.929Z,97324.55
2018-12-01T07:41:08.778Z,97326.08
2018-12-01T07:46:03.633Z,97323.16
2018-12-01T07:50:58.438Z,97328.45
2018-12-01T07:55:53.345Z,97324.45
2018-12-01T08:00:48.194Z,97328.78
2018-12-01T08:05:43.057Z,97334.83
2018-12-01T08:10:37.998Z,97325.80
2018-12-01T08:15:33.292Z,97322.36
2018-12-01T08:20:28.229Z,97322.31
2018-12-01T08:25:23.256Z,97325.98
2018-12-01T08:30:22.179Z,97323.87
2018-12-01T08:35:17.103Z,97317.66
2018-12-01T08:40:14.155Z,97318.46
2018-12-01T08:45:11.142Z,97317.66
2018-12-01T08:50:12.036Z,97318.51
2018-12-01T08:55:08.965Z,97319.33
2018-12-01T09:00:04.796Z,97321.17
2018-12-01T09:04:59.716Z,97314.14
2018-12-01T09:09:54.537Z,97318.65
2018-12-01T09:14:49.523Z,97303.59
2018-12-01T09:25:13.198Z,97301.50
2018-12-01T09:30:27.759Z,97301.66
2018-12-01T09:35:22.682Z,97292.63
2018-12-01T09:40:20.230Z,97286.51
2018-12-01T09:45:16.660Z,97286.91
2018-12-01T09:50:32.244Z,97281.67
2018-12-01T09:55:33.226Z,97272.83
2018-12-01T10:00:31.671Z,97270.59
2018-12-01T10:05:38.661Z,97262.95
2018-12-01T10:10:41.239Z,97251.56
2018-12-01T10:15:44.668Z,97255.12
2018-12-01T10:20:43.350Z,97254.53
2018-12-01T10:25:39.534Z,97242.64
2018-12-01T10:30:34.459Z,97238.69
2018-12-01T10:35:34.409Z,97232.72
2018-12-01T10:40:33.918Z,97239.44
2018-12-01T10:45:36.610Z,97242.16
2018-12-01T10:50:39.114Z,97232.64
2018-12-01T10:55:35.227Z,97227.84
2018-12-01T11:00:39.620Z,97232.20
2018-12-01T11:05:36.463Z,97238.00
2018-12-01T11:10:32.400Z,97244.78
2018-12-01T11:15:29.374Z,97242.42
2018-12-01T11:25:31.507Z,97242.72
2018-12-01T11:42:56.825Z,97231.14
2018-12-01T11:48:03.397Z,97233.58
2018-12-01T11:53:01.590Z,97223.58
2018-12-01T11:58:01.780Z,97222.55
2018-12-01T12:13:51.392Z,97216.52
2018-12-01T12:19:08.947Z,97203.23
2018-12-01T12:24:04.322Z,97206.13
2018-12-01T12:29:03.577Z,97207.25
2018-12-01T12:34:06.577Z,97202.03
2018-12-01T12:39:04.045Z,97200.25
2018-12-01T12:44:06.320Z,97191.77
2018-12-01T12:49:02.087Z,97194.75
2018-12-01T12:53:57.219Z,97193.53
2018-12-01T12:58:58.257Z,97201.82
2018-12-01T13:03:53.254Z,97193.07
2018-12-01T13:14:22.123Z,97183.55
2018-12-01T13:19:24.950Z,97185.27
2018-12-01T13:29:29.131Z,97168.87
2018-12-01T13:34:24.841Z,97162.44
2018-12-01T13:39:20.689Z,97160.35
2018-12-01T13:44:20.779Z,97155.97
2018-12-01T13:50:23.318Z,97144.13
2018-12-01T13:55:29.498Z,97144.61
2018-12-01T14:00:28.204Z,97141.05
2018-12-01T14:05:29.303Z,97129.19
2018-12-01T14:10:26.254Z,97125.38
2018-12-01T14:15:23.138Z,97127.25
2018-12-01T14:20:36.290Z,97130.44
2018-12-01T14:25:32.228Z,97131.27
2018-12-01T14:30:36.454Z,97133.33
2018-12-01T14:35:34.700Z,97138.73
2018-12-01T14:40:37.555Z,97136.66
2018-12-01T14:45:34.967Z,97141.05
2018-12-01T14:50:30.195Z,97141.21
2018-12-01T14:55:34.968Z,97128.55
2018-12-01T15:00:32.935Z,97128.41
2018-12-01T15:05:28.316Z,97125.16
2018-12-01T15:10:34.179Z,97124.12
2018-12-01T15:15:34.054Z,97126.73
2018-12-01T15:20:33.746Z,97116.72
2018-12-01T15:31:22.489Z,97122.66
2018-12-01T15:36:31.545Z,97117.12
2018-12-01T15:41:29.507Z,97117.60
2018-12-01T15:46:26.636Z,97115.52
2018-12-01T15:57:40.028Z,97123.92
2018-12-01T16:13:22.369Z,97107.55
2018-12-01T16:18:39.844Z,97103.74
2018-12-01T16:24:14.668Z,97114.08
2018-12-01T16:35:06.959Z,97110.95
2018-12-01T16:45:31.628Z,97124.34
2018-12-01T16:50:43.292Z,97116.23
2018-12-01T18:08:06.810Z,97065.90
2018-12-01T18:13:16.025Z,97062.92
2018-12-01T18:18:24.186Z,97051.52
2018-12-01T18:23:20.708Z,97043.17
2018-12-01T18:28:24.121Z,97051.62
2018-12-01T18:33:56.345Z,97040.15
2018-12-01T18:38:59.216Z,97041.81
2018-12-01T18:54:58.076Z,97024.16
2018-12-01T19:00:00.100Z,97016.91
2018-12-01T20:54:20.916Z,96942.99
2018-12-01T20:59:18.363Z,96935.59
2018-12-01T21:11:46.919Z,96949.44
2018-12-01T21:17:16.387Z,96943.63
2018-12-01T21:22:17.104Z,96943.14
2018-12-01T21:27:11.977Z,96938.53
2018-12-01T21:32:18.443Z,96935.34
2018-12-01T21:37:35.993Z,96920.67
2018-12-01T21:42:39.545Z,96919.98
2018-12-01T21:47:46.394Z,96919.36
2018-12-01T21:52:44.151Z,96926.55
2018-12-01T21:57:46.985Z,96921.53
2018-12-01T22:02:48.283Z,96921.14
2018-12-01T22:07:50.288Z,96920.33
2018-12-01T22:12:50.263Z,96914.94
2018-12-01T22:17:48.354Z,96911.96
2018-12-01T22:22:43.434Z,96901.66
2018-12-01T22:27:58.251Z,96898.85
2018-12-01T22:32:58.107Z,96909.16
2018-12-01T22:37:54.329Z,96910.89
2018-12-01T22:42:50.809Z,96904.42
2018-12-01T22:47:46.002Z,96905.02
2018-12-01T22:52:41.096Z,96896.69
2018-12-01T22:57:38.247Z,96889.41
2018-12-01T23:02:33.240Z,96876.16
2018-12-01T23:07:28.146Z,96863.47
2018-12-01T23:12:23.136Z,96858.06
2018-12-01T23:17:18.043Z,96853.91
2018-12-01T23:22:15.788Z,96850.60
2018-12-01T23:27:10.758Z,96842.23
2018-12-01T23:32:06.874Z,96841.39
2018-12-01T23:37:01.885Z,96851.33
2018-12-01T23:41:57.658Z,96836.81
2018-12-01T23:46:52.595Z,96824.07
2018-12-01T23:51:47.731Z,96827.26
